Impacts TAF Board INFO
FOR SITUATIONAL AWARENESS. NOT TO BE USED FOR FLIGHT PLANNING PURPOSES.
IDs:

KLGA - New York/La Guardia, NY, US

Issued at 0543 UTC 21 Apr 2018
Updated at 0543 UTC 21 Apr 2018
Potential Impact None Slight Moderate High
Time<<22/06Z 22/07Z 22/08Z 22/09Z 22/10Z 22/11Z 22/12Z 22/13Z 22/14Z 22/15Z 22/16Z 22/17Z 22/18Z
Type PRVL PRVL PRVL PRVL PRVL PRVL
VIS >6 >6 >6 >6 >6 >6
CIG -- -- -- -- -- --
Cover SCT SCT SCT SCT SCT SCT
FltCat VFR VFR VFR VFR VFR VFR
WX -- -- -- -- -- --
WDir 350 350 350 350 350 350
WSpd 7 7 7 7 7 7
WGst -- -- -- -- -- --

Raw TAF
KLGA 210543Z 2106/2212 33009KT P6SM SKC
  FM210800 VRB05KT P6SM SKC
  FM211200 32008KT P6SM FEW250
  FM211800 32010G18KT P6SM FEW040 FEW250
  FM212300 34010KT P6SM SCT250
  FM220400 35007KT P6SM SCT250


METAR Board
Radar Display
Forecast Discussion

FOR SITUATIONAL AWARENESS. NOT TO BE USED FOR FLIGHT PLANNING PURPOSES.